createdAt,value
2023-07-03T00:02:58.420Z,20.14
2023-07-03T00:06:02.234Z,20.17
2023-07-03T00:09:06.524Z,20.19
2023-07-03T00:12:11.144Z,20.21
2023-07-03T00:15:14.832Z,20.19
2023-07-03T00:18:17.709Z,20.21
2023-07-03T00:21:20.311Z,20.18
2023-07-03T00:24:23.239Z,20.09
2023-07-03T00:27:25.987Z,19.99
2023-07-03T00:30:28.868Z,19.94
2023-07-03T00:33:31.402Z,19.90
2023-07-03T00:36:34.182Z,19.75
2023-07-03T00:39:37.666Z,19.74
2023-07-03T00:42:42.383Z,19.76
2023-07-03T00:45:44.890Z,19.75
2023-07-03T00:48:48.057Z,19.62
2023-07-03T00:51:54.765Z,19.55
2023-07-03T00:54:59.030Z,19.68
2023-07-03T00:58:01.558Z,19.59
2023-07-03T01:01:28.471Z,19.53
2023-07-03T01:08:00.258Z,19.39
2023-07-03T01:11:03.645Z,19.37
2023-07-03T01:14:08.803Z,19.30
2023-07-03T01:17:12.467Z,19.27
2023-07-03T01:20:18.842Z,19.18
2023-07-03T01:23:26.552Z,19.16
2023-07-03T01:26:29.606Z,19.13
2023-07-03T01:29:35.006Z,19.15
2023-07-03T01:32:39.370Z,19.15
2023-07-03T01:35:43.346Z,19.05
2023-07-03T01:38:48.240Z,19.02
2023-07-03T01:41:52.540Z,18.97
2023-07-03T01:44:55.510Z,19.00
2023-07-03T01:47:58.159Z,19.09
2023-07-03T01:51:03.197Z,19.02
2023-07-03T01:54:22.773Z,18.96
2023-07-03T01:57:45.393Z,18.88
2023-07-03T02:01:01.083Z,18.79
2023-07-03T02:04:08.205Z,18.79
2023-07-03T02:07:13.442Z,18.73
2023-07-03T02:10:16.301Z,18.66
2023-07-03T02:13:19.450Z,18.61
2023-07-03T02:16:22.496Z,18.55
2023-07-03T02:19:29.760Z,18.53
2023-07-03T02:22:32.698Z,18.46
2023-07-03T02:25:35.310Z,18.47
2023-07-03T02:28:38.133Z,18.52
2023-07-03T02:31:41.242Z,18.62
2023-07-03T02:34:44.168Z,18.59
2023-07-03T02:37:46.671Z,18.60
2023-07-03T02:40:49.556Z,18.62
2023-07-03T02:43:52.161Z,18.65
2023-07-03T02:46:55.167Z,18.64
2023-07-03T02:49:58.196Z,18.59
2023-07-03T02:53:01.668Z,18.60
2023-07-03T02:56:04.804Z,18.56
2023-07-03T02:59:08.515Z,18.52
2023-07-03T03:02:11.504Z,18.49
2023-07-03T03:05:14.774Z,18.41
2023-07-03T03:08:17.731Z,18.38
2023-07-03T03:11:20.648Z,18.36
2023-07-03T03:14:23.840Z,18.42
2023-07-03T03:17:26.841Z,18.52
2023-07-03T03:20:29.449Z,18.51
2023-07-03T03:23:32.325Z,18.52
2023-07-03T03:26:34.816Z,18.62
2023-07-03T03:29:39.284Z,18.65
2023-07-03T03:32:43.375Z,18.64
2023-07-03T03:35:47.636Z,18.73
2023-07-03T03:38:50.611Z,18.72
2023-07-03T03:41:53.509Z,18.72
2023-07-03T03:44:56.111Z,18.92
2023-07-03T03:47:59.274Z,18.89
2023-07-03T03:51:02.364Z,19.01
2023-07-03T03:54:06.131Z,19.07
2023-07-03T03:57:08.752Z,19.10
2023-07-03T04:00:21.287Z,19.15
2023-07-03T04:03:24.414Z,19.16
2023-07-03T04:06:27.786Z,19.28
2023-07-03T04:09:30.720Z,19.22
2023-07-03T04:12:33.436Z,19.26
2023-07-03T04:15:52.897Z,19.28
2023-07-03T04:18:55.857Z,19.29
2023-07-03T04:21:59.760Z,19.38
2023-07-03T04:25:03.352Z,19.49
2023-07-03T04:28:06.383Z,19.47
2023-07-03T04:31:08.998Z,19.52
2023-07-03T04:34:11.830Z,19.59
2023-07-03T04:37:14.875Z,19.65
2023-07-03T04:40:18.777Z,19.77
2023-07-03T04:43:22.437Z,19.86
2023-07-03T04:46:29.333Z,19.84
2023-07-03T04:49:33.396Z,19.98
2023-07-03T04:52:37.518Z,20.06
2023-07-03T04:55:40.050Z,20.17
2023-07-03T04:58:42.904Z,20.22
2023-07-03T05:01:45.444Z,20.23
2023-07-03T05:04:48.658Z,20.26
2023-07-03T05:07:51.225Z,20.29
2023-07-03T05:10:54.069Z,20.26
2023-07-03T05:13:57.094Z,20.39
2023-07-03T05:16:59.910Z,20.46
2023-07-03T05:20:03.576Z,20.66
2023-07-03T05:23:06.357Z,20.75
2023-07-03T05:26:08.907Z,20.81
2023-07-03T05:29:11.697Z,20.88
2023-07-03T05:32:14.298Z,20.95
2023-07-03T05:35:17.215Z,21.04
2023-07-03T05:38:20.344Z,21.14
2023-07-03T05:41:25.402Z,21.25
2023-07-03T05:44:28.705Z,21.27
2023-07-03T05:47:31.640Z,21.36
2023-07-03T05:50:34.334Z,21.57
2023-07-03T05:53:37.139Z,21.72
2023-07-03T05:56:39.607Z,21.61
2023-07-03T05:59:42.437Z,21.72
2023-07-03T06:02:46.408Z,21.80
2023-07-03T06:05:49.698Z,22.01
2023-07-03T06:08:52.478Z,22.05
2023-07-03T06:11:56.792Z,22.16
2023-07-03T06:15:01.501Z,22.24
2023-07-03T06:18:05.127Z,22.33
2023-07-03T06:21:07.976Z,22.51
2023-07-03T06:24:12.963Z,22.67
2023-07-03T06:27:16.027Z,22.85
2023-07-03T06:30:19.829Z,22.89
2023-07-03T06:33:22.876Z,23.12
2023-07-03T06:36:26.484Z,23.08
2023-07-03T06:39:30.206Z,23.07
2023-07-03T06:42:33.052Z,23.22
2023-07-03T06:45:38.295Z,23.40
2023-07-03T06:48:41.119Z,23.59
2023-07-03T06:51:44.019Z,23.75
2023-07-03T06:54:49.673Z,23.87
2023-07-03T06:57:52.192Z,24.03
2023-07-03T07:00:55.282Z,24.10
2023-07-03T07:03:58.662Z,24.37
2023-07-03T07:07:01.846Z,24.32
2023-07-03T07:10:04.665Z,24.35
2023-07-03T07:13:09.124Z,24.48
2023-07-03T07:16:19.942Z,24.55
2023-07-03T07:19:22.667Z,24.85
2023-07-03T07:22:25.148Z,25.15
2023-07-03T07:25:28.265Z,25.65
2023-07-03T07:28:31.314Z,25.91
2023-07-03T07:31:39.776Z,25.75
2023-07-03T07:34:44.344Z,26.14
2023-07-03T07:37:47.134Z,26.06
2023-07-03T07:40:50.531Z,25.73
2023-07-03T07:43:54.318Z,26.09
2023-07-03T07:46:57.091Z,26.87
2023-07-03T07:50:00.012Z,27.20
2023-07-03T07:53:02.662Z,27.82
2023-07-03T07:56:08.328Z,27.70
2023-07-03T07:59:10.929Z,28.09
2023-07-03T08:02:13.820Z,27.94
2023-07-03T08:05:16.970Z,29.41
2023-07-03T08:08:19.515Z,28.63
2023-07-03T08:11:22.439Z,29.00
2023-07-03T08:14:24.952Z,29.41
2023-07-03T08:17:27.785Z,29.11
2023-07-03T08:20:30.420Z,29.59
2023-07-03T08:23:33.365Z,28.72
2023-07-03T08:26:35.942Z,28.88
2023-07-03T08:29:38.825Z,29.82
2023-07-03T08:32:42.232Z,30.19
2023-07-03T08:38:51.157Z,30.30
2023-07-03T08:42:05.478Z,30.74
2023-07-03T08:45:13.254Z,31.29
2023-07-03T08:48:25.504Z,31.74
2023-07-03T08:51:31.152Z,33.33
2023-07-03T08:54:37.046Z,33.66
2023-07-03T08:57:40.122Z,34.00
2023-07-03T09:01:08.066Z,35.06
2023-07-03T09:04:26.281Z,33.32
2023-07-03T09:07:42.213Z,34.50
2023-07-03T09:10:49.124Z,31.56
2023-07-03T09:13:55.968Z,33.09
2023-07-03T09:16:58.686Z,32.15
2023-07-03T09:20:05.259Z,33.06
2023-07-03T09:23:21.975Z,32.72
2023-07-03T09:26:32.188Z,31.85
2023-07-03T09:29:36.539Z,31.90
2023-07-03T09:32:40.401Z,31.46
2023-07-03T09:35:43.996Z,33.72
2023-07-03T09:38:46.985Z,33.49
2023-07-03T09:41:49.496Z,33.07
2023-07-03T09:44:52.550Z,35.33
2023-07-03T09:47:59.594Z,35.83
2023-07-03T09:51:08.992Z,37.30
2023-07-03T09:54:23.657Z,35.69
2023-07-03T09:57:27.943Z,34.04
2023-07-03T10:00:33.069Z,35.88
2023-07-03T10:03:36.925Z,35.24
2023-07-03T10:06:51.809Z,33.22
2023-07-03T10:13:17.706Z,35.51
2023-07-03T10:16:24.503Z,35.07
2023-07-03T10:19:28.432Z,34.44
2023-07-03T10:22:33.001Z,34.78
2023-07-03T10:25:41.149Z,35.04
2023-07-03T10:29:01.414Z,34.29
2023-07-03T10:32:16.316Z,33.61
2023-07-03T10:35:31.842Z,33.06
2023-07-03T10:38:44.395Z,32.11
2023-07-03T10:41:55.197Z,34.16
2023-07-03T10:45:05.040Z,35.85
2023-07-03T10:48:24.753Z,34.74
2023-07-03T10:51:43.184Z,34.36
2023-07-03T10:54:56.908Z,34.94
2023-07-03T10:58:27.889Z,35.20
2023-07-03T11:01:43.257Z,33.82
2023-07-03T11:05:04.389Z,37.01
2023-07-03T11:08:34.676Z,37.35
2023-07-03T11:11:46.560Z,35.19
2023-07-03T11:15:13.988Z,34.64
2023-07-03T11:28:57.100Z,35.16
2023-07-03T11:32:00.499Z,36.49
2023-07-03T11:44:28.299Z,34.04
2023-07-03T11:47:34.543Z,34.35
2023-07-03T11:50:37.115Z,33.87
2023-07-03T11:53:41.451Z,34.15
2023-07-03T11:56:50.319Z,34.95
2023-07-03T11:59:53.350Z,34.02
2023-07-03T12:02:57.800Z,34.07
2023-07-03T12:06:04.059Z,32.40
2023-07-03T12:09:21.911Z,32.65
2023-07-03T12:12:27.882Z,32.51
2023-07-03T12:15:30.445Z,32.16
2023-07-03T12:18:35.299Z,30.61
2023-07-03T12:21:44.916Z,31.57
2023-07-03T12:24:47.769Z,31.15
2023-07-03T12:27:51.533Z,31.48
2023-07-03T12:31:17.900Z,31.15
2023-07-03T12:34:26.194Z,30.52
2023-07-03T12:37:29.087Z,29.23
2023-07-03T12:40:32.173Z,30.82
2023-07-03T12:43:35.818Z,31.19
2023-07-03T12:46:42.173Z,30.75
2023-07-03T12:49:57.332Z,29.92
2023-07-03T12:53:01.879Z,30.02
2023-07-03T12:56:10.093Z,29.71
2023-07-03T12:59:18.063Z,29.76
2023-07-03T13:02:24.150Z,29.27
2023-07-03T13:05:27.704Z,29.14
2023-07-03T13:08:30.798Z,29.07
2023-07-03T13:11:40.821Z,29.05
2023-07-03T13:14:59.406Z,28.95
2023-07-03T13:18:06.976Z,29.15
2023-07-03T13:21:09.867Z,29.44
2023-07-03T13:24:16.117Z,29.31
2023-07-03T13:27:24.635Z,29.18
2023-07-03T13:30:32.896Z,29.41
2023-07-03T13:33:38.569Z,29.51
2023-07-03T13:36:57.670Z,29.35
2023-07-03T13:40:02.388Z,29.52
2023-07-03T13:43:05.972Z,29.55
2023-07-03T13:46:09.405Z,29.42
2023-07-03T13:49:15.267Z,30.02
2023-07-03T13:52:18.081Z,30.86
2023-07-03T13:55:21.154Z,29.76
2023-07-03T13:58:24.093Z,28.95
2023-07-03T14:01:27.349Z,28.41
2023-07-03T14:04:30.422Z,28.13
2023-07-03T14:07:32.973Z,28.41
2023-07-03T14:10:35.779Z,28.84
2023-07-03T14:13:39.241Z,28.64
2023-07-03T14:16:42.110Z,28.63
2023-07-03T14:19:44.623Z,28.40
2023-07-03T14:22:49.539Z,28.58
2023-07-03T14:25:52.406Z,28.91
2023-07-03T14:28:55.350Z,29.61
2023-07-03T14:31:58.355Z,29.47
2023-07-03T14:35:02.438Z,30.14
2023-07-03T14:38:05.334Z,31.57
2023-07-03T14:41:09.399Z,31.26
2023-07-03T14:44:11.939Z,30.25
2023-07-03T14:47:14.879Z,29.06
2023-07-03T14:50:17.640Z,28.79
2023-07-03T14:53:20.668Z,28.93
2023-07-03T14:56:23.338Z,28.88
2023-07-03T14:59:26.255Z,28.43
2023-07-03T15:02:28.867Z,29.01
2023-07-03T15:05:31.746Z,29.80
2023-07-03T15:08:34.209Z,30.17
2023-07-03T15:11:37.675Z,31.62
2023-07-03T15:14:40.783Z,31.00
2023-07-03T15:17:43.710Z,30.51
2023-07-03T15:20:47.202Z,29.55
2023-07-03T15:23:51.678Z,31.78
2023-07-03T15:26:54.322Z,33.51
2023-07-03T15:29:57.182Z,35.62
2023-07-03T15:32:59.707Z,35.86
2023-07-03T15:36:03.922Z,35.58
2023-07-03T15:39:07.242Z,35.32
2023-07-03T15:42:10.581Z,34.87
2023-07-03T15:45:13.518Z,32.42
2023-07-03T15:48:16.430Z,30.48
2023-07-03T15:51:19.691Z,30.61
2023-07-03T15:54:22.549Z,30.32
2023-07-03T15:57:25.191Z,30.90
2023-07-03T16:00:28.134Z,31.28
2023-07-03T16:03:31.518Z,31.05
2023-07-03T16:06:36.223Z,29.61
2023-07-03T16:09:39.099Z,29.26
2023-07-03T16:12:41.730Z,28.94
2023-07-03T16:15:45.407Z,28.91
2023-07-03T16:18:49.637Z,28.30
2023-07-03T16:21:52.494Z,28.04
2023-07-03T16:24:55.034Z,27.57
2023-07-03T16:27:58.186Z,26.54
2023-07-03T16:31:02.495Z,26.30
2023-07-03T16:34:05.444Z,26.53
2023-07-03T16:37:07.952Z,26.61
2023-07-03T16:40:11.741Z,26.72
2023-07-03T16:43:14.364Z,26.62
2023-07-03T16:46:20.103Z,26.65
2023-07-03T16:49:22.711Z,26.52
2023-07-03T16:52:25.474Z,26.45
2023-07-03T16:55:28.072Z,26.45
2023-07-03T16:58:31.357Z,26.08
2023-07-03T17:01:34.026Z,26.12
2023-07-03T17:04:37.400Z,26.32
2023-07-03T17:07:39.920Z,26.26
2023-07-03T17:10:42.740Z,26.04
2023-07-03T17:13:45.334Z,26.28
2023-07-03T17:16:48.414Z,26.30
2023-07-03T17:19:51.051Z,26.17
2023-07-03T17:22:54.252Z,26.10
2023-07-03T17:25:56.811Z,26.03
2023-07-03T17:29:00.114Z,26.03
2023-07-03T17:32:02.849Z,25.93
2023-07-03T17:35:05.950Z,25.87
2023-07-03T17:38:11.750Z,25.99
2023-07-03T17:41:14.568Z,25.82
2023-07-03T17:44:17.144Z,25.60
2023-07-03T17:47:19.989Z,25.46
2023-07-03T17:50:22.618Z,25.41
2023-07-03T17:53:26.196Z,25.25
2023-07-03T17:56:28.905Z,25.25
2023-07-03T17:59:31.789Z,25.20
2023-07-03T18:02:34.342Z,25.08
2023-07-03T18:05:37.406Z,25.01
2023-07-03T18:08:40.066Z,25.04
2023-07-03T18:11:43.185Z,24.95
2023-07-03T18:14:45.926Z,24.83
2023-07-03T18:17:48.694Z,24.82
2023-07-03T18:20:51.275Z,24.80
2023-07-03T18:23:55.558Z,24.66
2023-07-03T18:26:58.777Z,24.55
2023-07-03T18:30:01.734Z,24.52
2023-07-03T18:33:07.534Z,24.49
2023-07-03T18:36:10.456Z,24.37
2023-07-03T18:39:13.257Z,24.31
2023-07-03T18:42:16.168Z,24.24
2023-07-03T18:45:18.787Z,24.11
2023-07-03T18:48:21.682Z,24.02
2023-07-03T18:51:24.292Z,24.04
2023-07-03T18:54:27.141Z,24.05
2023-07-03T18:57:29.772Z,23.97
2023-07-03T19:00:32.754Z,23.99
2023-07-03T19:03:35.609Z,24.05
2023-07-03T19:06:40.251Z,24.11
2023-07-03T19:09:42.919Z,24.21
2023-07-03T19:12:47.024Z,24.27
2023-07-03T19:15:50.466Z,24.15
2023-07-03T19:18:55.003Z,24.11
2023-07-03T19:21:57.820Z,24.06
2023-07-03T19:25:00.977Z,24.07
2023-07-03T19:28:03.783Z,24.04
2023-07-03T19:31:06.970Z,23.95
2023-07-03T19:34:09.748Z,23.90
2023-07-03T19:37:12.923Z,23.90
2023-07-03T19:40:15.978Z,23.87
2023-07-03T19:43:19.649Z,23.85
2023-07-03T19:46:22.284Z,23.86
2023-07-03T19:49:26.195Z,23.83
2023-07-03T19:52:29.742Z,23.78
2023-07-03T19:55:37.144Z,23.67
2023-07-03T19:58:40.032Z,23.70
2023-07-03T20:01:43.584Z,23.81
2023-07-03T20:04:48.055Z,23.70
2023-07-03T20:07:52.500Z,23.64
2023-07-03T20:11:00.809Z,23.65
2023-07-03T20:14:05.677Z,23.60
2023-07-03T20:17:08.643Z,23.56
2023-07-03T20:20:11.854Z,23.56
2023-07-03T20:23:14.732Z,23.43
2023-07-03T20:26:17.335Z,23.38
2023-07-03T20:29:20.149Z,23.48
2023-07-03T20:32:22.749Z,23.28
2023-07-03T20:35:25.604Z,23.23
2023-07-03T20:38:29.085Z,23.16
2023-07-03T20:41:33.105Z,23.10
2023-07-03T20:44:35.721Z,23.03
2023-07-03T20:47:38.618Z,23.04
2023-07-03T20:50:51.049Z,22.96
2023-07-03T20:53:53.991Z,22.87
2023-07-03T20:56:56.527Z,22.87
2023-07-03T21:00:05.993Z,23.01
2023-07-03T21:03:08.642Z,22.88
2023-07-03T21:06:14.313Z,22.85
2023-07-03T21:09:16.823Z,22.80
2023-07-03T21:12:19.539Z,22.78
2023-07-03T21:15:22.065Z,22.78
2023-07-03T21:18:25.407Z,22.79
2023-07-03T21:21:31.444Z,22.68
2023-07-03T21:24:34.455Z,22.59
2023-07-03T21:27:37.557Z,22.57
2023-07-03T21:30:43.926Z,22.53
2023-07-03T21:33:46.595Z,22.50
2023-07-03T21:36:49.404Z,22.68
2023-07-03T21:39:51.959Z,22.52
2023-07-03T21:42:55.009Z,22.45
2023-07-03T21:46:09.293Z,22.54
2023-07-03T21:49:14.485Z,22.58
2023-07-03T21:52:16.920Z,22.54
2023-07-03T21:55:21.060Z,22.47
2023-07-03T21:58:23.526Z,22.47
2023-07-03T22:01:32.277Z,22.44
2023-07-03T22:04:35.450Z,22.50
2023-07-03T22:07:38.155Z,22.48
2023-07-03T22:10:41.057Z,22.42
2023-07-03T22:13:44.169Z,22.36
2023-07-03T22:16:48.173Z,22.35
2023-07-03T22:19:52.889Z,22.46
2023-07-03T22:22:55.720Z,22.40
2023-07-03T22:25:59.751Z,22.37
2023-07-03T22:29:02.703Z,22.39
2023-07-03T22:32:05.975Z,22.34
2023-07-03T22:35:10.028Z,22.48
2023-07-03T22:38:12.756Z,22.40
2023-07-03T22:41:16.375Z,22.39
2023-07-03T22:44:18.820Z,22.38
2023-07-03T22:47:21.808Z,22.37
2023-07-03T22:50:25.355Z,22.37
2023-07-03T22:53:28.361Z,22.38
2023-07-03T22:56:30.876Z,22.35
2023-07-03T22:59:34.162Z,22.32
2023-07-03T23:02:44.582Z,22.29
2023-07-03T23:05:47.450Z,22.26
2023-07-03T23:08:52.587Z,22.30
2023-07-03T23:11:55.540Z,22.29
2023-07-03T23:14:58.136Z,22.35
2023-07-03T23:18:01.338Z,22.30
2023-07-03T23:21:11.434Z,22.26
2023-07-03T23:24:17.278Z,22.29
2023-07-03T23:27:20.979Z,22.15
2023-07-03T23:30:24.203Z,22.07
2023-07-03T23:33:28.167Z,21.96
2023-07-03T23:36:31.575Z,21.97
2023-07-03T23:39:35.036Z,22.09
2023-07-03T23:42:37.816Z,22.23
2023-07-03T23:45:44.323Z,22.19
2023-07-03T23:48:47.305Z,22.08
2023-07-03T23:51:50.216Z,22.09
2023-07-03T23:54:53.041Z,22.16
2023-07-03T23:57:55.485Z,21.96
